createdAt,value
2018-08-09T00:01:29.991Z,10.30
2018-08-09T00:03:59.076Z,9.90
2018-08-09T00:06:28.234Z,10.53
2018-08-09T00:08:57.405Z,10.37
2018-08-09T00:11:26.786Z,8.90
2018-08-09T00:13:58.129Z,9.47
2018-08-09T00:16:27.373Z,11.40
2018-08-09T00:18:56.461Z,11.17
2018-08-09T00:21:25.293Z,9.37
2018-08-09T00:23:54.385Z,8.33
2018-08-09T00:26:23.487Z,11.30
2018-08-09T00:28:52.655Z,10.60
2018-08-09T00:31:21.476Z,10.07
2018-08-09T00:33:51.940Z,8.53
2018-08-09T00:36:20.906Z,11.00
2018-08-09T00:38:53.085Z,9.93
2018-08-09T00:41:22.240Z,10.00
2018-08-09T00:43:51.129Z,10.83
2018-08-09T00:46:19.920Z,12.03
2018-08-09T00:48:48.687Z,11.43
2018-08-09T00:51:17.662Z,10.93
2018-08-09T00:53:46.593Z,13.53
2018-08-09T00:56:15.413Z,9.77
2018-08-09T00:58:44.300Z,12.30
2018-08-09T01:01:13.613Z,12.40
2018-08-09T01:03:42.415Z,12.97
2018-08-09T01:06:11.488Z,11.37
2018-08-09T01:08:44.386Z,10.40
2018-08-09T01:11:13.183Z,11.77
2018-08-09T01:13:41.980Z,12.13
2018-08-09T01:16:10.832Z,13.80
2018-08-09T01:18:39.662Z,12.23
2018-08-09T01:21:08.537Z,14.20
2018-08-09T01:23:37.429Z,12.63
2018-08-09T01:26:06.206Z,11.60
2018-08-09T01:28:35.034Z,11.20
2018-08-09T01:31:03.866Z,10.20
2018-08-09T01:33:33.133Z,12.00
2018-08-09T01:36:02.134Z,12.00
2018-08-09T01:38:31.028Z,9.50
2018-08-09T01:40:59.883Z,12.07
2018-08-09T01:43:39.698Z,12.43
2018-08-09T01:46:08.833Z,12.00
2018-08-09T01:48:37.617Z,11.07
2018-08-09T01:51:06.544Z,11.30
2018-08-09T01:53:35.346Z,12.23
2018-08-09T01:56:04.190Z,13.20
2018-08-09T01:58:32.949Z,13.00
2018-08-09T02:01:01.778Z,15.17
2018-08-09T02:03:30.555Z,13.63
2018-08-09T02:05:59.645Z,12.03
2018-08-09T02:08:28.353Z,14.70
2018-08-09T02:10:57.206Z,16.47
2018-08-09T02:13:26.000Z,18.00
2018-08-09T02:15:54.856Z,19.30
2018-08-09T02:18:23.681Z,17.40
2018-08-09T02:20:52.936Z,15.07
2018-08-09T02:23:21.605Z,16.80
2018-08-09T02:25:50.660Z,17.10
2018-08-09T02:28:19.514Z,14.70
2018-08-09T02:30:48.307Z,18.60
2018-08-09T02:33:17.226Z,16.47
2018-08-09T02:35:46.169Z,18.07
2018-08-09T02:38:15.082Z,15.40
2018-08-09T02:40:43.912Z,15.77
2018-08-09T02:43:12.917Z,17.47
2018-08-09T02:45:41.762Z,17.77
2018-08-09T02:48:10.510Z,17.87
2018-08-09T02:50:39.352Z,18.67
2018-08-09T02:53:09.394Z,15.70
2018-08-09T02:55:39.491Z,18.80
2018-08-09T02:58:08.759Z,18.40
2018-08-09T03:00:37.532Z,14.33
2018-08-09T03:03:06.306Z,21.13
2018-08-09T03:05:35.507Z,19.00
2018-08-09T03:08:04.469Z,18.00
2018-08-09T03:10:37.023Z,20.50
2018-08-09T03:13:05.734Z,20.60
2018-08-09T03:15:34.609Z,21.20
2018-08-09T03:18:03.418Z,25.33
2018-08-09T03:20:32.409Z,27.77
2018-08-09T03:23:01.213Z,23.70
2018-08-09T03:25:30.197Z,26.53
2018-08-09T03:27:58.993Z,22.50
2018-08-09T03:30:31.813Z,23.30
2018-08-09T03:33:01.062Z,23.27
2018-08-09T03:35:30.202Z,18.10
2018-08-09T03:37:59.306Z,18.83
2018-08-09T03:40:29.049Z,20.00
2018-08-09T03:42:58.173Z,21.67
2018-08-09T03:45:27.254Z,22.83
2018-08-09T03:47:56.214Z,20.37
2018-08-09T03:50:25.031Z,20.43
2018-08-09T03:52:53.861Z,19.47
2018-08-09T03:55:22.612Z,21.60
2018-08-09T03:57:51.373Z,22.17
2018-08-09T04:00:20.178Z,23.67
2018-08-09T04:02:49.382Z,22.27
2018-08-09T04:05:18.181Z,23.60
2018-08-09T04:07:47.037Z,23.97
2018-08-09T04:10:16.076Z,27.17
2018-08-09T04:12:45.339Z,27.07
2018-08-09T04:15:14.104Z,28.17
2018-08-09T04:17:43.349Z,26.97
2018-08-09T04:20:12.296Z,28.13
2018-08-09T04:22:41.279Z,28.80
2018-08-09T04:25:10.406Z,28.47
2018-08-09T04:27:39.297Z,30.70
2018-08-09T04:30:08.249Z,28.77
2018-08-09T04:32:37.181Z,30.57
2018-08-09T04:35:06.139Z,26.57
2018-08-09T04:37:35.057Z,30.93
2018-08-09T04:40:03.890Z,30.87
2018-08-09T04:42:32.685Z,28.77
2018-08-09T04:45:01.894Z,25.70
2018-08-09T04:47:30.710Z,26.57
2018-08-09T04:49:59.617Z,25.27
2018-08-09T04:52:28.510Z,28.40
2018-08-09T04:54:57.357Z,29.60
2018-08-09T04:57:26.167Z,30.70
2018-08-09T04:59:55.092Z,31.10
2018-08-09T05:02:24.151Z,30.73
2018-08-09T05:04:53.094Z,31.07
2018-08-09T05:07:22.072Z,29.63
2018-08-09T05:09:51.600Z,24.70
2018-08-09T05:12:21.452Z,28.57
2018-08-09T05:14:50.197Z,27.07
2018-08-09T05:17:19.018Z,27.00
2018-08-09T05:19:48.541Z,27.20
2018-08-09T05:22:17.347Z,25.77
2018-08-09T05:24:46.231Z,25.50
2018-08-09T05:27:15.193Z,24.20
2018-08-09T05:29:43.971Z,23.63
2018-08-09T05:32:13.154Z,25.60
2018-08-09T05:34:41.951Z,21.53
2018-08-09T05:37:10.797Z,20.83
2018-08-09T05:39:39.923Z,21.40
2018-08-09T05:42:08.979Z,19.53
2018-08-09T05:44:37.736Z,20.73
2018-08-09T05:47:06.888Z,19.23
2018-08-09T05:49:35.820Z,21.70
2018-08-09T05:52:04.643Z,22.13
2018-08-09T05:54:33.568Z,20.80
2018-08-09T05:57:02.374Z,20.07
2018-08-09T05:59:31.141Z,22.83
2018-08-09T06:02:00.030Z,22.70
2018-08-09T06:04:28.849Z,18.93
2018-08-09T06:06:57.573Z,21.27
2018-08-09T06:09:26.428Z,21.03
2018-08-09T06:11:55.285Z,18.83
2018-08-09T06:14:24.205Z,20.03
2018-08-09T06:16:53.071Z,20.23
2018-08-09T06:19:21.881Z,19.20
2018-08-09T06:21:50.703Z,22.00
2018-08-09T06:24:19.576Z,19.87
2018-08-09T06:26:48.435Z,20.73
2018-08-09T06:29:17.189Z,18.10
2018-08-09T06:31:45.943Z,18.80
2018-08-09T06:34:14.830Z,17.67
2018-08-09T06:36:43.713Z,18.93
2018-08-09T06:39:12.581Z,16.77
2018-08-09T06:41:41.357Z,18.80
2018-08-09T06:44:10.301Z,18.00
2018-08-09T06:46:39.230Z,20.87
2018-08-09T06:49:08.174Z,19.57
2018-08-09T06:51:36.977Z,18.30
2018-08-09T06:54:05.866Z,18.23
2018-08-09T06:56:34.650Z,18.73
2018-08-09T06:59:03.705Z,19.10
2018-08-09T07:01:32.587Z,20.40
2018-08-09T07:04:01.399Z,17.53
2018-08-09T07:06:30.186Z,19.43
2018-08-09T07:08:59.074Z,19.20
2018-08-09T07:11:27.811Z,18.63
2018-08-09T07:13:56.582Z,17.53
2018-08-09T07:16:25.392Z,19.00
2018-08-09T07:18:54.235Z,18.20
2018-08-09T07:21:22.978Z,20.80
2018-08-09T07:23:51.825Z,19.87
2018-08-09T07:26:20.734Z,20.40
2018-08-09T07:28:49.666Z,19.57
2018-08-09T07:31:18.423Z,18.00
2018-08-09T07:33:47.209Z,21.60
2018-08-09T07:36:16.017Z,18.90
2018-08-09T07:38:44.793Z,18.90
2018-08-09T07:41:13.556Z,18.83
2018-08-09T07:43:42.398Z,19.00
2018-08-09T07:46:11.256Z,16.43
2018-08-09T07:48:40.247Z,20.70
2018-08-09T07:51:09.139Z,16.87
2018-08-09T07:53:38.118Z,17.60
2018-08-09T07:56:06.878Z,16.80
2018-08-09T07:58:35.714Z,16.73
2018-08-09T08:01:04.472Z,15.70
2018-08-09T08:03:33.295Z,17.80
2018-08-09T08:06:02.108Z,17.10
2018-08-09T08:08:31.017Z,14.53
2018-08-09T08:10:59.938Z,15.90
2018-08-09T08:13:28.650Z,15.13
2018-08-09T08:15:57.531Z,14.77
2018-08-09T08:18:26.316Z,14.43
2018-08-09T08:20:55.113Z,12.70
2018-08-09T08:23:24.977Z,12.67
2018-08-09T08:25:53.832Z,12.87
2018-08-09T08:28:22.607Z,9.45
2018-08-09T08:30:51.348Z,13.17
2018-08-09T08:33:21.242Z,10.10
2018-08-09T08:35:50.169Z,10.07
2018-08-09T08:38:19.430Z,9.97
2018-08-09T08:40:48.758Z,8.97
2018-08-09T08:43:18.894Z,9.57
2018-08-09T08:45:47.961Z,8.20
2018-08-09T08:48:16.731Z,9.67
2018-08-09T08:50:45.732Z,9.53
2018-08-09T08:53:15.675Z,8.47
2018-08-09T08:55:44.433Z,9.50
2018-08-09T08:58:15.572Z,10.23
2018-08-09T09:00:45.242Z,10.33
2018-08-09T09:03:14.505Z,8.73
2018-08-09T09:05:44.890Z,10.00
2018-08-09T09:08:13.904Z,10.70
2018-08-09T09:10:43.301Z,9.73
2018-08-09T09:13:19.306Z,10.20
2018-08-09T09:15:48.154Z,11.30
2018-08-09T09:18:19.246Z,10.53
2018-08-09T09:20:48.525Z,12.53
2018-08-09T09:23:26.697Z,12.97
2018-08-09T09:25:57.388Z,15.03
2018-08-09T09:28:33.226Z,12.10
2018-08-09T09:31:02.832Z,16.00
2018-08-09T09:33:33.689Z,15.63
2018-08-09T09:36:02.789Z,15.70
2018-08-09T09:38:31.563Z,16.40
2018-08-09T09:41:00.526Z,13.17
2018-08-09T09:43:30.857Z,16.57
2018-08-09T09:45:59.817Z,15.60
2018-08-09T09:48:28.937Z,13.50
2018-08-09T09:51:00.373Z,16.77
2018-08-09T09:53:46.605Z,15.57
2018-08-09T09:56:15.492Z,19.80
2018-08-09T09:58:44.430Z,14.27
2018-08-09T10:01:19.177Z,14.40
2018-08-09T10:03:56.379Z,17.17
2018-08-09T10:06:25.242Z,15.83
2018-08-09T10:08:55.112Z,14.07
2018-08-09T10:11:24.009Z,14.30
2018-08-09T10:13:58.493Z,22.17
2018-08-09T10:16:27.609Z,13.80
2018-08-09T10:18:57.329Z,12.27
2018-08-09T10:21:26.118Z,15.93
2018-08-09T10:23:54.950Z,47.93
2018-08-09T10:26:23.768Z,25.90
2018-08-09T10:28:52.623Z,15.30
2018-08-09T10:31:21.632Z,17.53
2018-08-09T10:33:50.491Z,15.53
2018-08-09T10:36:19.268Z,12.33
2018-08-09T10:38:48.040Z,14.13
2018-08-09T10:41:16.926Z,16.20
2018-08-09T10:43:50.897Z,14.10
2018-08-09T10:46:19.720Z,16.60
2018-08-09T10:48:48.561Z,11.33
2018-08-09T10:51:17.340Z,12.50
2018-08-09T10:53:49.282Z,14.47
2018-08-09T10:56:18.176Z,12.40
2018-08-09T10:58:46.986Z,18.00
2018-08-09T11:01:16.220Z,18.83
2018-08-09T11:03:47.269Z,11.20
2018-08-09T11:06:16.520Z,10.97
2018-08-09T11:08:45.347Z,11.13
2018-08-09T11:11:15.489Z,9.70
2018-08-09T11:13:45.683Z,10.33
2018-08-09T11:16:15.505Z,12.03
2018-08-09T11:18:45.280Z,10.40
2018-08-09T11:21:14.530Z,9.13
2018-08-09T11:23:43.454Z,8.03
2018-08-09T11:26:20.325Z,9.50
2018-08-09T11:28:49.093Z,7.30
2018-08-09T11:31:17.948Z,8.77
2018-08-09T11:33:46.721Z,8.60
2018-08-09T11:36:15.521Z,9.67
2018-08-09T11:38:44.277Z,10.03
2018-08-09T11:41:13.562Z,8.43
2018-08-09T11:43:42.294Z,10.17
2018-08-09T11:46:11.446Z,9.07
2018-08-09T11:48:40.291Z,9.90
2018-08-09T11:51:12.187Z,9.50
2018-08-09T11:53:41.037Z,9.20
2018-08-09T11:56:19.095Z,8.90
2018-08-09T11:58:47.835Z,10.87
2018-08-09T12:01:16.608Z,7.90
2018-08-09T12:03:45.401Z,9.90
2018-08-09T12:06:16.257Z,8.27
2018-08-09T12:08:45.049Z,8.60
2018-08-09T12:11:14.861Z,8.80
2018-08-09T12:13:44.704Z,9.60
2018-08-09T12:16:13.955Z,10.43
2018-08-09T12:18:43.052Z,9.40
2018-08-09T12:21:11.943Z,11.37
2018-08-09T12:23:40.794Z,11.97
2018-08-09T12:26:20.274Z,10.73
2018-08-09T12:28:49.123Z,10.23
2018-08-09T12:31:22.773Z,17.77
2018-08-09T12:33:51.953Z,20.13
2018-08-09T12:36:28.706Z,12.97
2018-08-09T12:38:57.714Z,10.70
2018-08-09T12:41:26.927Z,10.50
2018-08-09T12:43:55.929Z,10.80
2018-08-09T12:46:33.607Z,12.13
2018-08-09T12:49:02.507Z,11.27
2018-08-09T12:51:31.427Z,11.20
2018-08-09T12:54:00.224Z,19.27
2018-08-09T12:56:29.845Z,10.80
2018-08-09T12:58:59.059Z,14.77
2018-08-09T13:01:27.910Z,14.77
2018-08-09T13:03:56.650Z,12.53
2018-08-09T13:06:42.841Z,13.70
2018-08-09T13:09:12.447Z,13.57
2018-08-09T13:11:41.919Z,11.53
2018-08-09T13:14:10.757Z,12.13
2018-08-09T13:16:39.632Z,19.83
2018-08-09T13:19:08.760Z,12.20
2018-08-09T13:21:40.941Z,11.47
2018-08-09T13:24:09.673Z,10.77
2018-08-09T13:26:38.821Z,11.90
2018-08-09T13:29:07.632Z,12.27
2018-08-09T13:31:36.478Z,11.90
2018-08-09T13:34:05.438Z,13.10
2018-08-09T13:36:35.302Z,16.33
2018-08-09T13:39:05.190Z,13.33
2018-08-09T13:41:33.917Z,12.50
2018-08-09T13:44:02.722Z,14.17
2018-08-09T13:46:31.519Z,13.23
2018-08-09T13:49:00.273Z,13.40
2018-08-09T13:51:29.090Z,12.40
2018-08-09T13:53:57.861Z,12.90
2018-08-09T13:56:47.096Z,11.27
2018-08-09T13:59:16.113Z,14.57
2018-08-09T14:01:44.962Z,14.53
2018-08-09T14:04:13.871Z,13.20
2018-08-09T14:06:42.638Z,12.83
2018-08-09T14:09:13.778Z,11.57
2018-08-09T14:11:43.319Z,13.00
2018-08-09T14:14:12.708Z,15.53
2018-08-09T14:16:45.766Z,12.50
2018-08-09T14:19:14.689Z,17.90
2018-08-09T14:21:43.445Z,17.47
2018-08-09T14:24:12.247Z,17.43
2018-08-09T14:26:43.117Z,15.90
2018-08-09T14:29:11.925Z,19.40
2018-08-09T14:31:40.710Z,21.60
2018-08-09T14:34:09.455Z,24.23
2018-08-09T14:36:41.829Z,23.60
2018-08-09T14:39:11.753Z,24.27
2018-08-09T14:41:40.537Z,24.50
2018-08-09T14:44:09.704Z,26.60
2018-08-09T14:46:45.834Z,25.83
2018-08-09T14:49:14.594Z,26.67
2018-08-09T14:51:43.359Z,31.03
2018-08-09T14:54:12.202Z,26.60
2018-08-09T14:56:43.130Z,22.10
2018-08-09T14:59:12.141Z,16.80
2018-08-09T15:01:40.989Z,12.00
2018-08-09T15:04:09.961Z,13.17
2018-08-09T15:06:38.746Z,9.13
2018-08-09T15:09:09.934Z,8.53
2018-08-09T15:11:38.721Z,10.00
2018-08-09T15:14:08.853Z,8.50
2018-08-09T15:16:37.659Z,7.30
2018-08-09T15:19:06.545Z,5.40
2018-08-09T15:21:35.489Z,6.53
2018-08-09T15:24:04.445Z,6.80
2018-08-09T15:26:33.267Z,5.70
2018-08-09T15:29:02.103Z,8.43
2018-08-09T15:31:30.898Z,7.17
2018-08-09T15:33:59.849Z,6.47
2018-08-09T15:36:28.734Z,6.17
2018-08-09T15:38:57.526Z,5.90
2018-08-09T15:41:26.316Z,5.77
2018-08-09T15:43:55.212Z,4.90
2018-08-09T15:46:24.028Z,7.40
2018-08-09T15:48:53.330Z,6.07
2018-08-09T15:51:22.064Z,4.40
2018-08-09T15:53:50.876Z,5.30
2018-08-09T15:56:19.658Z,4.40
2018-08-09T15:58:48.474Z,4.67
2018-08-09T16:01:17.206Z,6.00
2018-08-09T16:03:46.169Z,4.30
2018-08-09T16:06:14.969Z,3.93
2018-08-09T16:08:43.765Z,5.40
2018-08-09T16:11:12.589Z,5.60
2018-08-09T16:13:41.501Z,5.60
2018-08-09T16:16:10.428Z,4.40
2018-08-09T16:18:39.144Z,4.50
2018-08-09T16:21:08.017Z,4.70
2018-08-09T16:23:36.830Z,5.20
2018-08-09T16:26:05.643Z,4.87
2018-08-09T16:28:34.498Z,4.70
2018-08-09T16:31:03.453Z,5.20
2018-08-09T16:33:32.303Z,5.20
2018-08-09T16:36:01.115Z,4.63
2018-08-09T16:38:29.896Z,5.70
2018-08-09T16:40:58.829Z,4.50
2018-08-09T16:43:27.749Z,6.00
2018-08-09T16:45:56.781Z,4.37
2018-08-09T16:48:25.661Z,5.40
2018-08-09T16:50:54.503Z,4.63
2018-08-09T16:53:23.281Z,5.40
2018-08-09T16:55:52.119Z,5.53
2018-08-09T16:58:20.860Z,4.80
2018-08-09T17:00:49.740Z,5.43
2018-08-09T17:03:18.551Z,5.33
2018-08-09T17:05:47.481Z,5.70
2018-08-09T17:08:19.806Z,5.80
2018-08-09T17:10:48.768Z,5.10
2018-08-09T17:13:18.667Z,4.37
2018-08-09T17:15:47.590Z,4.47
2018-08-09T17:18:16.498Z,5.00
2018-08-09T17:20:45.376Z,4.97
2018-08-09T17:23:14.262Z,4.10
2018-08-09T17:25:43.060Z,5.27
2018-08-09T17:28:11.975Z,5.17
2018-08-09T17:30:40.885Z,4.20
2018-08-09T17:33:09.811Z,4.83
2018-08-09T17:35:38.643Z,4.70
2018-08-09T17:38:08.161Z,4.77
2018-08-09T17:40:37.284Z,4.80
2018-08-09T17:43:06.175Z,3.90
2018-08-09T17:45:35.806Z,4.77
2018-08-09T17:48:08.494Z,4.20
2018-08-09T17:50:37.418Z,4.63
2018-08-09T17:53:07.534Z,6.27
2018-08-09T17:55:36.422Z,4.03
2018-08-09T17:58:05.470Z,4.63
2018-08-09T18:00:35.561Z,4.93
2018-08-09T18:03:04.514Z,4.20
2018-08-09T18:05:33.519Z,4.57
2018-08-09T18:08:02.438Z,4.77
2018-08-09T18:10:33.956Z,3.90
2018-08-09T18:13:02.788Z,4.63
2018-08-09T18:15:32.228Z,4.10
2018-08-09T18:18:02.006Z,4.43
2018-08-09T18:20:33.446Z,4.73
2018-08-09T18:23:02.342Z,4.37
2018-08-09T18:25:31.400Z,3.93
2018-08-09T18:28:00.337Z,3.90
2018-08-09T18:30:29.302Z,5.37
2018-08-09T18:32:58.328Z,3.73
2018-08-09T18:35:27.198Z,4.40
2018-08-09T18:37:56.170Z,3.60
2018-08-09T18:40:26.858Z,5.80
2018-08-09T18:42:55.763Z,5.43
2018-08-09T18:45:24.761Z,5.47
2018-08-09T18:47:53.761Z,4.17
2018-08-09T18:50:29.868Z,3.93
2018-08-09T18:52:58.841Z,4.30
2018-08-09T18:55:27.755Z,3.60
2018-08-09T18:57:56.630Z,4.40
2018-08-09T19:00:27.323Z,5.70
2018-08-09T19:02:56.335Z,4.40
2018-08-09T19:05:25.427Z,3.70
2018-08-09T19:07:54.384Z,3.70
2018-08-09T19:10:24.913Z,3.87
2018-08-09T19:12:53.799Z,3.83
2018-08-09T19:15:22.585Z,4.03
2018-08-09T19:17:50.564Z,5.27
2018-08-09T19:20:28.333Z,6.17
2018-08-09T19:22:57.721Z,5.17
2018-08-09T19:25:26.573Z,5.37
2018-08-09T19:27:55.473Z,4.73
2018-08-09T19:30:26.017Z,5.10
2018-08-09T19:32:55.003Z,5.23
2018-08-09T19:35:24.141Z,5.33
2018-08-09T19:37:52.961Z,6.10
2018-08-09T19:40:25.549Z,5.67
2018-08-09T19:42:54.497Z,5.20
2018-08-09T19:45:23.337Z,4.33
2018-08-09T19:47:52.160Z,5.17
2018-08-09T19:50:22.369Z,4.93
2018-08-09T19:52:51.249Z,4.53
2018-08-09T19:55:21.727Z,4.37
2018-08-09T19:57:51.200Z,3.97
2018-08-09T20:00:21.665Z,4.47
2018-08-09T20:02:50.827Z,4.07
2018-08-09T20:05:19.681Z,4.17
2018-08-09T20:07:48.555Z,4.07
2018-08-09T20:10:17.500Z,3.13
2018-08-09T20:12:47.181Z,3.37
2018-08-09T20:15:18.268Z,3.53
2018-08-09T20:17:47.199Z,5.27
2018-08-09T20:20:17.476Z,3.97
2018-08-09T20:22:46.250Z,4.27
2018-08-09T20:25:15.591Z,4.47
2018-08-09T20:27:45.229Z,4.47
2018-08-09T20:30:16.009Z,3.73
2018-08-09T20:32:45.721Z,4.00
2018-08-09T20:35:18.853Z,3.67
2018-08-09T20:37:48.291Z,3.40
2018-08-09T20:40:17.925Z,4.40
2018-08-09T20:42:48.006Z,3.90
2018-08-09T20:45:18.395Z,3.40
2018-08-09T20:47:47.191Z,3.73
2018-08-09T20:50:18.342Z,4.20
2018-08-09T20:52:47.867Z,4.13
2018-08-09T20:55:16.774Z,4.33
2018-08-09T20:57:46.416Z,5.00
2018-08-09T21:00:18.338Z,5.70
2018-08-09T21:02:48.670Z,5.90
2018-08-09T21:05:23.475Z,5.20
2018-08-09T21:07:53.527Z,4.93
2018-08-09T21:10:22.743Z,6.20
2018-08-09T21:12:51.559Z,5.33
2018-08-09T21:15:20.987Z,4.80
2018-08-09T21:17:49.852Z,3.73
2018-08-09T21:20:18.745Z,3.90
2018-08-09T21:22:48.500Z,3.40
2018-08-09T21:25:17.520Z,3.23
2018-08-09T21:27:47.005Z,4.40
2018-08-09T21:30:18.246Z,2.90
2018-08-09T21:32:47.560Z,4.67
2018-08-09T21:35:16.358Z,4.13
2018-08-09T21:37:45.494Z,3.63
2018-08-09T21:40:15.209Z,3.90
2018-08-09T21:42:44.125Z,3.60
2018-08-09T21:45:16.351Z,3.33
2018-08-09T21:47:45.111Z,4.30
2018-08-09T21:50:16.200Z,3.40
2018-08-09T21:52:45.078Z,3.80
2018-08-09T21:55:14.604Z,3.37
2018-08-09T21:57:44.557Z,3.80
2018-08-09T22:00:22.099Z,3.17
2018-08-09T22:02:51.160Z,3.27
2018-08-09T22:06:25.000Z,3.10
2018-08-09T22:08:58.982Z,3.03
2018-08-09T22:11:32.961Z,2.97
2018-08-09T22:15:09.756Z,2.13
2018-08-09T22:17:43.739Z,2.50
2018-08-09T22:20:17.748Z,2.40
2018-08-09T22:22:46.674Z,3.07
2018-08-09T22:25:15.485Z,2.53
2018-08-09T22:27:44.332Z,2.57
2018-08-09T22:30:15.629Z,2.20
2018-08-09T22:32:44.460Z,2.60
2018-08-09T22:35:13.217Z,2.43
2018-08-09T22:37:41.939Z,1.93
2018-08-09T22:40:10.877Z,2.53
2018-08-09T22:42:39.697Z,2.73
2018-08-09T22:45:08.617Z,2.13
2018-08-09T22:47:37.360Z,1.93
2018-08-09T22:50:06.157Z,2.13
2018-08-09T22:52:34.921Z,2.50
2018-08-09T22:55:03.856Z,2.47
2018-08-09T22:57:32.557Z,2.40
2018-08-09T23:00:01.356Z,2.57
2018-08-09T23:02:30.173Z,2.73
2018-08-09T23:04:58.866Z,3.20
2018-08-09T23:07:27.785Z,2.60
2018-08-09T23:09:56.541Z,2.30
2018-08-09T23:12:25.359Z,3.83
2018-08-09T23:14:54.064Z,3.30
2018-08-09T23:17:22.840Z,2.50
2018-08-09T23:19:51.514Z,2.80
2018-08-09T23:22:20.337Z,2.73
2018-08-09T23:24:49.047Z,2.17
2018-08-09T23:27:17.729Z,2.33
2018-08-09T23:29:46.598Z,3.03
2018-08-09T23:32:15.440Z,3.07
2018-08-09T23:34:44.294Z,2.97
2018-08-09T23:37:13.142Z,3.67
2018-08-09T23:39:41.917Z,4.43
2018-08-09T23:42:10.707Z,3.40
2018-08-09T23:44:39.369Z,3.73
2018-08-09T23:47:08.233Z,3.20
2018-08-09T23:49:36.972Z,3.93
2018-08-09T23:52:05.977Z,3.70
2018-08-09T23:54:34.995Z,4.40
2018-08-09T23:57:03.707Z,3.17
2018-08-09T23:59:32.513Z,3.23
